Time;durP1;ratioP1;P1;durP2;ratioP2;P2;SDS_P1;SDS_P2;PMS_P1;PMS_P2;Temp;Humidity;BMP_temperature;BMP_pressure;BME280_temperature;BME280_humidity;BME280_pressure;Samples;Min_cycle;Max_cycle;Signal;HPM_P1;HPM_P2
2022/11/30 00:00:17;;;;;;;77.57;26.17;;;7.30;99.90;;;;;;5137972;27;20475;-74
2022/11/30 00:02:43;;;;;;;57.28;21.70;;;7.30;99.90;;;;;;5126500;27;20054;-73
2022/11/30 00:05:09;;;;;;;62.85;21.42;;;7.30;99.90;;;;;;5142556;27;20343;-74
2022/11/30 00:07:35;;;;;;;63.30;23.30;;;7.30;99.90;;;;;;5129685;27;20090;-74
2022/11/30 00:10:01;;;;;;;62.55;21.55;;;7.30;99.90;;;;;;5140927;27;20420;-74
2022/11/30 00:12:27;;;;;;;67.60;24.73;;;7.30;99.90;;;;;;5122802;27;20046;-75
2022/11/30 00:14:53;;;;;;;79.05;27.17;;;7.30;99.90;;;;;;5127845;27;20088;-75
2022/11/30 00:17:19;;;;;;;72.60;24.77;;;7.30;99.90;;;;;;5116670;27;20470;-76
2022/11/30 00:19:45;;;;;;;63.85;22.90;;;7.30;99.90;;;;;;5125145;27;20070;-74
2022/11/30 00:22:11;;;;;;;56.72;21.15;;;7.20;99.90;;;;;;5118767;27;20091;-74
2022/11/30 00:24:36;;;;;;;57.53;21.48;;;7.10;99.90;;;;;;5121837;27;20035;-75
2022/11/30 00:27:02;;;;;;;55.63;20.23;;;7.10;99.90;;;;;;5118998;27;20069;-75
2022/11/30 00:29:28;;;;;;;71.55;24.98;;;7.10;99.90;;;;;;5138540;27;20495;-78
2022/11/30 00:31:54;;;;;;;82.03;27.60;;;7.00;99.90;;;;;;5139406;27;20255;-75
2022/11/30 00:34:19;;;;;;;65.28;23.52;;;7.00;99.90;;;;;;5146470;27;20085;-72
2022/11/30 00:36:45;;;;;;;62.17;22.67;;;6.90;99.90;;;;;;5141997;27;20125;-76
2022/11/30 00:39:11;;;;;;;60.40;22.05;;;6.90;99.90;;;;;;5121833;27;20443;-73
2022/11/30 00:41:36;;;;;;;58.20;19.85;;;6.90;99.90;;;;;;5141495;27;20042;-73
2022/11/30 00:44:02;;;;;;;60.33;19.75;;;6.80;99.90;;;;;;5122420;27;20049;-75
2022/11/30 00:46:28;;;;;;;62.30;21.30;;;6.70;99.90;;;;;;5120000;27;20042;-74
2022/11/30 00:48:53;;;;;;;54.03;20.15;;;6.60;99.90;;;;;;5122779;27;20050;-73
2022/11/30 00:51:19;;;;;;;53.17;18.77;;;6.50;99.90;;;;;;5139326;27;20051;-73
2022/11/30 00:53:46;;;;;;;54.13;19.80;;;6.40;99.90;;;;;;5126474;27;20040;-73
2022/11/30 00:56:12;;;;;;;63.33;21.40;;;6.20;99.90;;;;;;5144886;27;20050;-79
2022/11/30 00:58:39;;;;;;;60.00;20.05;;;6.10;99.90;;;;;;5120089;27;20386;-73
2022/11/30 01:01:06;;;;;;;52.83;19.35;;;6.00;99.90;;;;;;5111208;27;20039;-74
2022/11/30 01:03:32;;;;;;;57.78;19.40;;;5.80;99.90;;;;;;5147458;27;20054;-74
2022/11/30 01:06:06;;;;;;;69.37;23.13;;;5.70;99.90;;;;;;5121222;27;20043;-74
2022/11/30 01:08:32;;;;;;;72.40;24.27;;;5.60;99.90;;;;;;5107459;27;20308;-74
2022/11/30 01:11:15;;;;;;;69.82;22.55;;;5.60;99.90;;;;;;5126523;27;20042;-74
2022/11/30 01:13:40;;;;;;;62.15;20.35;;;5.60;99.90;;;;;;5120287;27;20054;-73
2022/11/30 01:16:18;;;;;;;64.45;21.95;;;5.50;99.90;;;;;;5141475;27;20039;-73
2022/11/30 01:18:44;;;;;;;61.20;20.13;;;5.50;99.90;;;;;;5143260;27;20038;-73
2022/11/30 01:21:14;;;;;;;59.70;19.55;;;5.40;99.90;;;;;;5140622;27;20062;-77
2022/11/30 01:23:40;;;;;;;65.90;20.20;;;5.30;99.90;;;;;;5121028;27;20482;-74
2022/11/30 01:26:06;;;;;;;69.78;21.27;;;5.30;99.90;;;;;;5142999;27;20046;-73
2022/11/30 01:28:33;;;;;;;70.37;23.00;;;5.50;99.90;;;;;;5120481;27;20039;-74
2022/11/30 01:31:01;;;;;;;70.82;22.48;;;5.70;99.90;;;;;;5098242;27;20051;-74
2022/11/30 01:33:27;;;;;;;75.97;22.13;;;5.70;99.90;;;;;;5121477;27;20055;-73
2022/11/30 01:36:25;;;;;;;69.63;22.90;;;5.80;99.90;;;;;;5116943;27;20039;-75
2022/11/30 01:38:53;;;;;;;71.82;21.73;;;5.90;99.90;;;;;;5068923;27;20053;-73
2022/11/30 01:41:26;;;;;;;66.05;21.13;;;5.90;99.90;;;;;;5144270;27;20030;-73
2022/11/30 01:44:04;;;;;;;68.68;22.67;;;5.90;99.90;;;;;;5143736;27;20055;-75
2022/11/30 01:46:35;;;;;;;67.43;21.13;;;5.90;99.90;;;;;;5140151;27;20035;-77
2022/11/30 01:49:34;;;;;;;66.47;20.63;;;6.00;99.90;;;;;;5119095;27;20055;-74
2022/11/30 01:52:20;;;;;;;63.28;20.85;;;6.00;99.90;;;;;;5139596;27;20049;-79
2022/11/30 01:54:48;;;;;;;68.18;21.77;;;6.10;99.90;;;;;;5143610;27;20043;-75
2022/11/30 01:57:22;;;;;;;71.15;23.42;;;6.10;99.90;;;;;;5143632;27;20058;-76
2022/11/30 01:59:51;;;;;;;80.00;24.73;;;6.10;99.90;;;;;;5143634;27;20070;-77
2022/11/30 02:02:28;;;;;;;69.72;23.75;;;6.10;99.90;;;;;;5122388;27;20035;-79
2022/11/30 02:04:54;;;;;;;69.68;22.20;;;6.00;99.90;;;;;;5118490;27;20035;-75
2022/11/30 02:07:20;;;;;;;68.43;23.27;;;6.00;99.90;;;;;;5141637;27;20509;-80
2022/11/30 02:09:45;;;;;;;71.63;22.38;;;6.00;99.90;;;;;;5142077;27;20043;-76
2022/11/30 02:12:26;;;;;;;73.03;22.60;;;6.00;99.90;;;;;;5111945;27;20503;-77
2022/11/30 02:14:57;;;;;;;75.68;24.77;;;6.00;99.90;;;;;;5120898;27;20439;-75
2022/11/30 02:17:39;;;;;;;69.55;22.17;;;5.90;99.90;;;;;;5112959;27;20445;-79
2022/11/30 02:20:38;;;;;;;68.57;23.40;;;6.00;99.90;;;;;;5100772;27;20067;-79
2022/11/30 02:23:35;;;;;;;67.63;22.60;;;6.00;99.90;;;;;;5125930;27;20046;-75
2022/11/30 02:26:19;;;;;;;;;;;6.00;99.90;;;;;;5124560;27;20402;-74
2022/11/30 02:29:00;;;;;;;67.30;23.63;;;6.00;99.90;;;;;;5098428;27;19919;-74
2022/11/30 02:31:36;;;;;;;72.05;26.23;;;6.00;99.90;;;;;;5122771;27;20046;-75
2022/11/30 02:34:05;;;;;;;74.32;26.45;;;6.00;99.90;;;;;;5138787;27;20042;-74
2022/11/30 02:36:31;;;;;;;69.18;24.40;;;6.00;99.90;;;;;;5141751;27;20039;-74
2022/11/30 02:38:57;;;;;;;71.82;24.88;;;6.00;99.90;;;;;;5094804;27;20042;-80
2022/11/30 02:41:23;;;;;;;70.88;22.45;;;6.00;99.90;;;;;;5098786;27;20043;-75
2022/11/30 02:43:50;;;;;;;68.00;23.60;;;6.00;99.90;;;;;;5126517;27;20038;-74
2022/11/30 02:46:31;;;;;;;66.70;23.35;;;6.00;99.90;;;;;;5090836;27;20046;-75
2022/11/30 02:49:28;;;;;;;69.03;23.23;;;6.00;99.90;;;;;;5142182;27;20111;-74
2022/11/30 02:51:55;;;;;;;69.57;23.27;;;6.00;99.90;;;;;;5140752;27;20129;-74
2022/11/30 02:54:21;;;;;;;66.40;22.27;;;6.00;99.90;;;;;;5125237;27;20043;-73
2022/11/30 02:56:47;;;;;;;68.53;23.85;;;6.00;99.90;;;;;;5139947;27;20444;-73
2022/11/30 02:59:13;;;;;;;71.47;23.83;;;6.10;99.90;;;;;;5115031;27;20045;-74
2022/11/30 03:01:39;;;;;;;71.05;22.85;;;6.10;99.90;;;;;;5137757;27;20055;-81
2022/11/30 03:04:05;;;;;;;74.55;24.77;;;6.00;99.90;;;;;;5137638;27;20042;-75
2022/11/30 03:06:30;;;;;;;67.05;23.67;;;6.00;99.90;;;;;;5098817;27;20039;-75
2022/11/30 03:08:56;;;;;;;69.13;22.45;;;6.10;99.90;;;;;;5140001;27;20035;-74
2022/11/30 03:11:22;;;;;;;76.25;24.27;;;6.10;99.90;;;;;;5092192;27;20228;-74
2022/11/30 03:13:47;;;;;;;65.55;22.88;;;6.10;99.90;;;;;;5121880;27;20086;-74
2022/11/30 03:16:13;;;;;;;70.35;23.23;;;6.10;99.90;;;;;;5099726;27;20114;-74
2022/11/30 03:18:39;;;;;;;71.15;23.75;;;6.20;99.90;;;;;;5139254;27;20039;-75
2022/11/30 03:21:07;;;;;;;65.30;22.98;;;6.20;99.90;;;;;;5142918;27;20082;-76
2022/11/30 03:23:34;;;;;;;68.47;23.15;;;6.20;99.90;;;;;;5120562;27;20498;-76
2022/11/30 03:26:00;;;;;;;73.82;24.45;;;6.20;99.90;;;;;;5137505;27;20103;-77
2022/11/30 03:28:26;;;;;;;75.60;23.88;;;6.20;99.90;;;;;;5123334;27;20045;-74
2022/11/30 03:30:52;;;;;;;73.05;26.05;;;6.20;99.90;;;;;;5126430;27;20031;-75
2022/11/30 03:33:17;;;;;;;68.85;24.25;;;6.20;99.90;;;;;;5101426;27;20059;-74
2022/11/30 03:35:43;;;;;;;67.90;22.90;;;6.20;99.90;;;;;;5099994;27;20085;-81
2022/11/30 03:38:10;;;;;;;68.30;23.75;;;6.20;99.90;;;;;;5104111;27;20122;-79
2022/11/30 03:40:36;;;;;;;69.13;23.77;;;6.20;99.90;;;;;;5143374;27;20039;-75
2022/11/30 03:43:02;;;;;;;74.30;24.45;;;6.30;99.90;;;;;;5103307;27;20087;-74
2022/11/30 03:45:28;;;;;;;80.07;26.65;;;6.30;99.90;;;;;;5138972;27;20042;-74
2022/11/30 03:47:54;;;;;;;67.95;23.13;;;6.30;99.90;;;;;;5118769;27;20434;-74
2022/11/30 03:50:19;;;;;;;65.53;22.80;;;6.20;99.90;;;;;;5123553;27;20094;-83
2022/11/30 03:52:45;;;;;;;77.60;23.92;;;6.30;99.90;;;;;;5124974;27;20110;-82
2022/11/30 03:55:11;;;;;;;70.47;23.77;;;6.20;99.90;;;;;;5144387;27;20042;-75
2022/11/30 03:57:37;;;;;;;70.75;23.60;;;6.30;99.90;;;;;;5126629;27;20062;-75
2022/11/30 04:00:05;;;;;;;61.67;23.80;;;6.30;99.90;;;;;;5143154;27;20043;-74
2022/11/30 04:02:31;;;;;;;74.32;24.45;;;6.30;99.90;;;;;;5141891;27;20039;-74
2022/11/30 04:04:57;;;;;;;75.32;23.67;;;6.30;99.90;;;;;;5142548;27;20066;-75
2022/11/30 04:07:23;;;;;;;81.90;25.73;;;6.30;99.90;;;;;;5116682;27;20042;-80
2022/11/30 04:09:48;;;;;;;67.30;24.38;;;6.30;99.90;;;;;;5144103;27;20397;-75
2022/11/30 04:12:14;;;;;;;71.82;24.23;;;6.30;99.90;;;;;;5102355;27;20138;-74
2022/11/30 04:14:40;;;;;;;73.95;25.52;;;6.30;99.90;;;;;;5070094;27;20134;-75
2022/11/30 04:17:05;;;;;;;69.65;24.35;;;6.20;99.90;;;;;;5140002;27;20039;-73
2022/11/30 04:19:31;;;;;;;68.03;24.42;;;6.20;99.90;;;;;;5144923;27;20482;-75
2022/11/30 04:21:57;;;;;;;65.60;23.75;;;6.20;99.90;;;;;;5127525;27;20045;-74
2022/11/30 04:24:23;;;;;;;71.68;23.08;;;6.30;99.90;;;;;;5118600;27;20043;-74
2022/11/30 04:26:49;;;;;;;71.45;23.80;;;6.30;99.90;;;;;;5115898;27;20050;-80
2022/11/30 04:29:15;;;;;;;72.60;24.25;;;6.30;99.90;;;;;;5137076;27;20039;-74
2022/11/30 04:31:40;;;;;;;69.22;23.63;;;6.40;99.90;;;;;;5123943;27;20038;-74
2022/11/30 04:34:06;;;;;;;68.22;25.35;;;6.30;99.90;;;;;;5102245;27;20474;-75
2022/11/30 04:36:32;;;;;;;71.15;24.60;;;6.30;99.90;;;;;;5139409;27;20122;-74
2022/11/30 04:38:57;;;;;;;75.70;23.55;;;6.30;99.90;;;;;;5127109;27;20194;-74
2022/11/30 04:41:23;;;;;;;65.60;23.83;;;6.30;99.90;;;;;;5142845;27;20042;-75
2022/11/30 04:43:49;;;;;;;77.70;23.90;;;6.40;99.90;;;;;;5108026;27;20077;-75
2022/11/30 04:46:15;;;;;;;74.85;23.38;;;6.30;99.90;;;;;;5102946;27;20443;-77
2022/11/30 04:48:40;;;;;;;73.18;23.90;;;6.30;99.90;;;;;;5107757;27;20398;-74
2022/11/30 04:51:07;;;;;;;69.15;24.02;;;6.30;99.90;;;;;;5141933;27;20043;-75
2022/11/30 04:53:34;;;;;;;80.43;25.63;;;6.40;99.90;;;;;;5136928;27;20081;-78
2022/11/30 04:56:05;;;;;;;77.20;25.63;;;6.40;99.90;;;;;;5093143;27;20505;-77
2022/11/30 04:58:31;;;;;;;75.93;25.88;;;6.40;99.90;;;;;;5143972;27;20035;-74
2022/11/30 05:00:57;;;;;;;76.57;26.02;;;6.40;99.90;;;;;;5099935;27;20046;-77
2022/11/30 05:03:22;;;;;;;80.00;26.13;;;6.40;99.90;;;;;;5099150;27;20061;-74
2022/11/30 05:05:48;;;;;;;70.68;25.17;;;6.30;99.90;;;;;;5146797;27;20098;-74
2022/11/30 05:08:14;;;;;;;75.90;25.48;;;6.40;99.90;;;;;;5100508;27;20470;-74
2022/11/30 05:10:40;;;;;;;78.95;26.02;;;6.40;99.90;;;;;;5138344;27;20035;-74
2022/11/30 05:13:06;;;;;;;80.03;25.30;;;6.40;99.90;;;;;;5127468;27;20323;-79
2022/11/30 05:15:32;;;;;;;73.07;24.02;;;6.40;99.90;;;;;;5122778;27;20082;-74
2022/11/30 05:17:59;;;;;;;76.38;26.30;;;6.40;99.90;;;;;;5146167;27;20387;-74
2022/11/30 05:20:25;;;;;;;78.43;25.23;;;6.50;99.90;;;;;;5117345;27;20471;-74
2022/11/30 05:22:50;;;;;;;70.13;24.77;;;6.40;99.90;;;;;;5143808;27;20045;-76
2022/11/30 05:25:16;;;;;;;76.65;25.77;;;6.40;99.90;;;;;;5123135;27;20043;-81
2022/11/30 05:27:42;;;;;;;81.30;26.33;;;6.50;99.90;;;;;;5123871;27;20050;-74
2022/11/30 05:30:09;;;;;;;76.57;24.83;;;6.40;99.90;;;;;;5101907;27;20521;-74
2022/11/30 05:32:35;;;;;;;;;;;6.40;99.90;;;;;;5133598;27;20069;-74
2022/11/30 05:35:00;;;;;;;88.13;26.92;;;6.40;99.90;;;;;;5132918;27;19919;-73
2022/11/30 05:37:26;;;;;;;78.90;25.35;;;6.40;99.90;;;;;;5120373;27;20046;-81
2022/11/30 05:39:52;;;;;;;83.72;26.42;;;6.40;99.90;;;;;;5119253;27;20046;-74
2022/11/30 05:42:18;;;;;;;78.55;24.88;;;6.50;99.90;;;;;;5115595;27;20039;-77
2022/11/30 05:44:44;;;;;;;75.75;23.88;;;6.50;99.90;;;;;;5106449;27;20386;-75
2022/11/30 05:47:09;;;;;;;78.55;24.85;;;6.50;99.90;;;;;;5122392;27;20053;-75
2022/11/30 05:49:35;;;;;;;79.30;23.90;;;6.50;99.90;;;;;;5114398;27;20051;-76
2022/11/30 05:52:01;;;;;;;80.55;24.77;;;6.50;99.90;;;;;;5097949;27;20083;-84
2022/11/30 05:54:26;;;;;;;77.88;25.67;;;6.50;99.90;;;;;;5114263;27;20133;-73
2022/11/30 05:56:52;;;;;;;86.55;25.77;;;6.50;99.90;;;;;;5138839;27;20645;-75
2022/11/30 05:59:18;;;;;;;75.75;24.50;;;6.50;99.90;;;;;;5119731;27;20075;-75
2022/11/30 06:01:43;;;;;;;78.68;25.80;;;6.50;99.90;;;;;;5140928;27;20070;-75
2022/11/30 06:04:09;;;;;;;81.43;25.40;;;6.60;99.90;;;;;;5104595;27;20133;-75
2022/11/30 06:06:35;;;;;;;82.72;24.92;;;6.50;99.90;;;;;;5109952;27;20475;-76
2022/11/30 06:09:01;;;;;;;91.57;26.52;;;6.50;99.90;;;;;;5137891;27;20534;-80
2022/11/30 06:11:26;;;;;;;76.82;24.15;;;6.60;99.90;;;;;;5120111;27;20597;-76
2022/11/30 06:13:52;;;;;;;83.53;24.85;;;6.60;99.90;;;;;;5105152;27;20050;-74
2022/11/30 06:16:18;;;;;;;79.15;23.05;;;6.50;99.90;;;;;;5110054;27;20043;-75
2022/11/30 06:18:43;;;;;;;74.70;22.65;;;6.50;99.90;;;;;;5141428;27;20041;-76
2022/11/30 06:21:10;;;;;;;76.05;24.00;;;6.60;99.90;;;;;;5139554;27;20050;-74
2022/11/30 06:23:36;;;;;;;76.15;23.80;;;6.60;99.90;;;;;;5120571;27;20049;-77
2022/11/30 06:26:08;;;;;;;64.83;19.50;;;6.60;99.90;;;;;;5119537;27;20435;-76
2022/11/30 06:28:35;;;;;;;74.00;19.73;;;6.60;99.90;;;;;;5138761;27;20390;-76
2022/11/30 06:31:02;;;;;;;71.47;22.40;;;6.50;99.90;;;;;;5140766;27;20129;-77
2022/11/30 06:33:28;;;;;;;70.68;21.95;;;6.50;99.90;;;;;;5114457;27;20046;-76
2022/11/30 06:35:54;;;;;;;71.78;21.52;;;6.50;99.90;;;;;;5153226;27;20049;-74
2022/11/30 06:38:20;;;;;;;86.22;25.40;;;6.50;99.90;;;;;;5151492;27;20114;-74
2022/11/30 06:40:46;;;;;;;77.60;22.55;;;6.50;99.90;;;;;;5134802;27;20046;-75
2022/11/30 06:43:11;;;;;;;75.57;20.75;;;6.50;99.90;;;;;;5116574;27;20095;-75
2022/11/30 06:45:38;;;;;;;74.53;22.27;;;6.50;99.90;;;;;;5122448;27;20494;-76
2022/11/30 06:48:04;;;;;;;67.80;20.55;;;6.50;99.90;;;;;;5094580;27;20047;-76
2022/11/30 06:50:30;;;;;;;78.50;22.13;;;6.50;99.90;;;;;;5131697;27;20070;-74
2022/11/30 06:52:56;;;;;;;73.30;21.40;;;6.50;99.90;;;;;;5131335;28;20035;-75
2022/11/30 06:55:22;;;;;;;76.60;22.48;;;6.50;99.90;;;;;;5097006;28;20059;-76
2022/11/30 06:57:48;;;;;;;72.55;20.48;;;6.50;99.90;;;;;;5132164;28;20049;-75
2022/11/30 07:00:15;;;;;;;78.80;22.50;;;6.50;99.90;;;;;;5113854;28;20175;-74
2022/11/30 07:02:41;;;;;;;76.20;20.95;;;6.50;99.90;;;;;;5125939;27;20042;-74
2022/11/30 07:05:07;;;;;;;69.15;19.60;;;6.50;99.90;;;;;;5155278;27;20043;-75
2022/11/30 07:07:33;;;;;;;81.38;20.55;;;6.50;99.90;;;;;;5155472;27;20062;-75
2022/11/30 07:09:58;;;;;;;77.45;22.65;;;6.50;99.90;;;;;;5138968;27;20065;-76
2022/11/30 07:12:25;;;;;;;68.05;20.48;;;6.50;99.90;;;;;;5121011;27;20450;-77
2022/11/30 07:14:52;;;;;;;73.63;21.30;;;6.50;99.90;;;;;;5157085;27;20038;-75
2022/11/30 07:17:18;;;;;;;72.93;20.83;;;6.50;99.90;;;;;;5156773;27;20516;-78
2022/11/30 07:19:45;;;;;;;78.60;22.00;;;6.50;99.90;;;;;;5156326;27;20030;-75
2022/11/30 07:22:12;;;;;;;75.30;22.30;;;6.50;99.90;;;;;;5138452;27;20054;-83
2022/11/30 07:27:22;;;;;;;70.25;21.30;;;6.60;99.90;;;;;;5156503;27;20130;-77
2022/11/30 07:29:50;;;;;;;72.07;21.92;;;6.60;99.90;;;;;;5138399;27;20050;-75
2022/11/30 07:32:16;;;;;;;73.93;20.05;;;6.50;99.90;;;;;;5138223;27;20386;-76
2022/11/30 07:34:42;;;;;;;69.10;20.30;;;6.50;99.90;;;;;;5138724;27;20038;-76
2022/11/30 07:37:08;;;;;;;65.97;20.20;;;6.50;99.90;;;;;;5121302;27;20053;-75
2022/11/30 07:39:33;;;;;;;78.68;21.67;;;6.60;99.90;;;;;;5134939;27;20111;-75
2022/11/30 07:41:59;;;;;;;74.65;20.35;;;6.50;99.90;;;;;;5117301;27;20432;-76
2022/11/30 07:44:25;;;;;;;69.30;19.05;;;6.50;99.90;;;;;;5117205;27;20395;-75
2022/11/30 07:46:51;;;;;;;67.40;18.40;;;6.50;99.90;;;;;;5100912;27;20082;-79
2022/11/30 07:49:17;;;;;;;67.07;19.90;;;6.50;99.90;;;;;;5125144;27;20074;-77
2022/11/30 07:51:42;;;;;;;72.03;19.67;;;6.60;99.90;;;;;;5137700;27;20089;-73
2022/11/30 07:54:08;;;;;;;70.43;19.40;;;6.60;99.90;;;;;;5120059;27;20043;-73
2022/11/30 07:56:34;;;;;;;70.22;19.70;;;6.60;99.90;;;;;;5100121;27;20043;-75
2022/11/30 07:59:01;;;;;;;69.68;19.20;;;6.50;99.90;;;;;;5100261;27;20459;-73
2022/11/30 08:01:29;;;;;;;67.85;20.67;;;6.60;99.90;;;;;;5100014;27;20399;-76
2022/11/30 08:03:56;;;;;;;74.93;19.95;;;6.50;99.90;;;;;;5135401;27;20134;-75
2022/11/30 08:06:24;;;;;;;74.18;21.05;;;6.50;99.90;;;;;;5099804;27;20043;-73
2022/11/30 08:08:52;;;;;;;64.05;18.30;;;6.50;99.90;;;;;;5115983;27;20047;-73
2022/11/30 08:11:20;;;;;;;68.65;19.83;;;6.50;99.90;;;;;;5135920;27;20055;-74
2022/11/30 08:13:46;;;;;;;70.57;21.13;;;6.50;99.90;;;;;;5135101;27;20050;-73
2022/11/30 08:16:19;;;;;;;67.50;20.27;;;6.50;99.90;;;;;;5099113;27;20043;-74
2022/11/30 08:18:46;;;;;;;68.25;21.77;;;6.50;99.90;;;;;;5139822;27;20031;-76
2022/11/30 08:21:13;;;;;;;69.05;21.20;;;6.40;99.90;;;;;;5137395;27;20086;-73
2022/11/30 08:23:44;;;;;;;69.93;20.17;;;6.40;99.90;;;;;;5115625;27;20043;-75
2022/11/30 08:26:22;;;;;;;62.80;18.05;;;6.40;99.90;;;;;;5100262;27;20131;-75
2022/11/30 08:28:50;;;;;;;66.95;21.02;;;6.40;99.90;;;;;;5116377;27;20115;-74
2022/11/30 08:31:40;;;;;;;59.10;17.67;;;6.40;99.90;;;;;;5134989;27;20096;-75
2022/11/30 08:34:09;;;;;;;59.05;17.85;;;6.50;99.90;;;;;;5134271;27;20055;-76
2022/11/30 08:36:36;;;;;;;67.30;21.38;;;6.50;99.90;;;;;;5116379;27;20055;-74
2022/11/30 08:39:04;;;;;;;63.67;20.63;;;6.50;99.90;;;;;;5115504;27;20051;-74
2022/11/30 08:41:30;;;;;;;58.00;18.20;;;6.50;99.90;;;;;;5099397;27;20053;-74
2022/11/30 08:43:56;;;;;;;53.65;17.35;;;6.50;99.90;;;;;;5122415;27;20072;-75
2022/11/30 08:46:24;;;;;;;59.88;18.73;;;6.60;99.90;;;;;;5136553;27;20482;-74
2022/11/30 08:48:49;;;;;;;;;;;6.60;99.90;;;;;;5155476;27;20123;-76
2022/11/30 08:51:17;;;;;;;54.78;16.48;;;6.50;99.90;;;;;;5158100;27;19927;-74
2022/11/30 08:53:43;;;;;;;55.75;17.08;;;6.60;99.90;;;;;;5136475;27;20506;-77
2022/11/30 08:56:18;;;;;;;45.33;15.60;;;6.60;99.90;;;;;;5155667;27;20047;-76
2022/11/30 08:58:44;;;;;;;45.28;16.92;;;6.60;99.90;;;;;;5137178;27;20050;-74
2022/11/30 09:01:12;;;;;;;42.42;15.38;;;6.60;99.90;;;;;;5129260;27;20043;-77
2022/11/30 09:03:39;;;;;;;47.00;16.27;;;6.70;99.90;;;;;;5116690;27;20089;-76
2022/11/30 09:06:13;;;;;;;50.30;17.73;;;6.80;99.90;;;;;;5117107;27;20050;-76
2022/11/30 09:08:41;;;;;;;38.72;14.63;;;6.70;99.90;;;;;;5134648;27;20039;-79
2022/11/30 09:11:16;;;;;;;42.53;16.30;;;6.80;99.90;;;;;;5135321;27;20051;-74
2022/11/30 09:13:42;;;;;;;46.65;17.67;;;6.70;99.90;;;;;;5135309;27;20058;-73
2022/11/30 09:16:08;;;;;;;44.27;15.97;;;6.80;99.90;;;;;;5117880;27;20077;-75
2022/11/30 09:18:35;;;;;;;40.22;15.50;;;6.80;99.90;;;;;;5102466;27;20277;-77
2022/11/30 09:21:03;;;;;;;44.72;15.68;;;6.70;99.90;;;;;;5137535;27;20078;-79
2022/11/30 09:23:29;;;;;;;44.90;16.45;;;6.80;99.90;;;;;;5118813;27;20090;-74
2022/11/30 09:26:00;;;;;;;46.60;17.70;;;6.80;99.90;;;;;;5102079;27;20072;-75
2022/11/30 09:28:27;;;;;;;51.63;21.33;;;6.70;99.90;;;;;;5137218;27;20134;-76
2022/11/30 09:30:53;;;;;;;41.97;16.17;;;6.70;99.90;;;;;;5156018;27;20061;-74
2022/11/30 09:33:20;;;;;;;44.25;16.38;;;6.80;99.90;;;;;;5157995;27;20371;-75
2022/11/30 09:35:57;;;;;;;42.83;16.50;;;6.80;99.90;;;;;;5156824;27;20047;-74
2022/11/30 09:38:23;;;;;;;43.83;15.95;;;6.70;99.90;;;;;;5160042;27;20047;-83
2022/11/30 09:41:00;;;;;;;46.95;16.55;;;6.70;99.90;;;;;;5161037;27;20049;-75
2022/11/30 09:43:32;;;;;;;;;;;6.80;99.90;;;;;;5138740;27;20077;-77
2022/11/30 09:46:03;;;;;;;41.85;16.58;;;6.80;99.90;;;;;;5139035;27;19919;-76
2022/11/30 09:48:56;;;;;;;41.75;16.05;;;6.80;99.90;;;;;;5155480;27;20065;-77
2022/11/30 09:51:36;;;;;;;44.13;16.60;;;6.70;99.90;;;;;;5101551;27;20058;-75
2022/11/30 09:54:08;;;;;;;46.83;18.60;;;6.80;99.90;;;;;;5117702;27;20086;-78
2022/11/30 09:56:37;;;;;;;48.45;18.15;;;6.70;99.90;;;;;;5135588;27;20126;-75
2022/11/30 09:59:28;;;;;;;45.65;19.27;;;6.60;99.90;;;;;;5099209;27;20050;-76
2022/11/30 10:01:57;;;;;;;42.60;16.10;;;6.70;99.90;;;;;;5115973;27;20049;-77
2022/11/30 10:04:25;;;;;;;44.80;16.88;;;6.70;99.90;;;;;;5135205;27;20090;-77
2022/11/30 10:06:59;;;;;;;42.55;17.58;;;6.80;99.90;;;;;;5137238;27;20050;-75
2022/11/30 10:09:48;;;;;;;47.17;17.65;;;6.70;99.90;;;;;;5105786;27;20078;-79
2022/11/30 10:12:41;;;;;;;45.25;17.65;;;6.80;99.90;;;;;;5123844;27;20054;-75
2022/11/30 10:15:33;;;;;;;46.50;17.58;;;6.90;99.90;;;;;;5116303;27;20403;-74
2022/11/30 10:18:40;;;;;;;38.72;16.67;;;6.90;99.90;;;;;;5138224;27;20096;-74
2022/11/30 10:21:15;;;;;;;44.85;17.20;;;7.00;99.90;;;;;;5136616;27;20367;-73
2022/11/30 10:23:58;;;;;;;42.63;17.15;;;7.00;99.90;;;;;;5133376;27;20140;-75
2022/11/30 10:26:52;;;;;;;45.83;17.70;;;6.90;99.90;;;;;;5139374;27;20107;-75
2022/11/30 10:29:34;;;;;;;42.10;17.67;;;7.00;99.90;;;;;;5138196;27;20058;-74
2022/11/30 10:32:10;;;;;;;45.15;17.80;;;7.00;99.90;;;;;;5135611;27;20041;-76
2022/11/30 10:34:36;;;;;;;43.92;17.08;;;7.00;99.90;;;;;;5117656;27;20050;-77
2022/11/30 10:37:13;;;;;;;43.00;16.67;;;7.10;99.90;;;;;;5117054;27;20050;-78
2022/11/30 10:39:59;;;;;;;41.55;16.27;;;7.00;99.90;;;;;;5114132;27;20043;-78
2022/11/30 10:42:31;;;;;;;41.58;16.60;;;6.90;99.90;;;;;;5134115;27;20447;-75
2022/11/30 10:45:09;;;;;;;44.95;17.65;;;6.90;99.90;;;;;;5132434;27;20058;-74
2022/11/30 10:47:37;;;;;;;38.85;16.90;;;6.80;99.90;;;;;;5132023;27;20065;-74
2022/11/30 10:50:06;;;;;;;42.15;19.00;;;6.90;99.90;;;;;;5096727;28;20142;-76
2022/11/30 10:52:43;;;;;;;44.88;20.13;;;6.80;99.90;;;;;;5112491;28;20061;-78
2022/11/30 10:55:17;;;;;;;40.65;17.73;;;6.80;99.90;;;;;;5134007;27;20050;-78
2022/11/30 10:57:44;;;;;;;40.65;16.90;;;6.80;99.90;;;;;;5135394;27;20047;-77
2022/11/30 11:00:16;;;;;;;35.53;16.10;;;6.80;99.90;;;;;;5146678;27;20049;-74
2022/11/30 11:02:45;;;;;;;39.85;16.73;;;6.90;99.90;;;;;;5098905;28;20046;-74
2022/11/30 11:05:34;;;;;;;36.92;15.70;;;6.90;99.90;;;;;;5135203;28;20051;-75
2022/11/30 11:08:15;;;;;;;36.83;16.08;;;6.90;99.90;;;;;;5118076;28;20337;-73
2022/11/30 11:10:46;;;;;;;37.42;16.55;;;6.90;99.90;;;;;;5138635;28;20047;-74
2022/11/30 11:13:16;;;;;;;38.00;15.75;;;6.90;99.90;;;;;;5138275;28;20423;-74
2022/11/30 11:15:56;;;;;;;37.42;16.13;;;7.00;99.90;;;;;;5120585;28;20043;-75
2022/11/30 11:18:25;;;;;;;40.42;16.55;;;6.90;99.90;;;;;;5137664;27;20058;-76
2022/11/30 11:20:59;;;;;;;39.53;18.90;;;6.80;99.90;;;;;;5156524;27;20069;-75
2022/11/30 11:23:31;;;;;;;36.90;16.33;;;7.00;99.90;;;;;;5128141;28;20445;-73
2022/11/30 11:25:57;;;;;;;39.53;16.90;;;6.90;99.90;;;;;;5115878;28;20073;-76
2022/11/30 11:28:24;;;;;;;43.30;18.45;;;6.80;99.90;;;;;;5115420;28;20050;-75
2022/11/30 11:30:55;;;;;;;39.83;17.02;;;6.90;99.90;;;;;;5114966;28;20043;-74
2022/11/30 11:33:28;;;;;;;40.78;16.85;;;7.00;99.90;;;;;;5132601;28;20035;-76
2022/11/30 11:36:06;;;;;;;40.58;18.30;;;7.00;99.90;;;;;;5132555;28;20039;-75
2022/11/30 11:38:41;;;;;;;40.72;17.48;;;6.90;99.90;;;;;;5112756;28;20050;-76
2022/11/30 11:41:25;;;;;;;41.22;17.80;;;6.90;99.90;;;;;;5114517;28;20250;-77
2022/11/30 11:44:20;;;;;;;46.35;18.13;;;7.00;99.90;;;;;;5132462;28;20096;-75
2022/11/30 11:47:04;;;;;;;45.03;19.48;;;6.90;99.90;;;;;;5115896;28;20050;-75
2022/11/30 11:49:35;;;;;;;43.88;18.55;;;6.90;99.90;;;;;;5143461;27;20174;-75
2022/11/30 11:52:16;;;;;;;45.95;21.48;;;7.00;99.90;;;;;;5118736;27;20054;-74
2022/11/30 11:54:50;;;;;;;42.30;17.95;;;6.90;99.90;;;;;;5137384;27;20122;-74
2022/11/30 11:57:20;;;;;;;40.38;16.83;;;7.00;99.90;;;;;;5139694;27;20042;-75
2022/11/30 11:59:57;;;;;;;41.45;18.88;;;7.00;99.90;;;;;;5158231;27;20126;-77
2022/11/30 12:02:38;;;;;;;42.20;17.73;;;7.00;99.90;;;;;;5117381;27;20055;-76
2022/11/30 12:05:25;;;;;;;41.78;17.45;;;7.10;99.90;;;;;;5101746;27;20047;-77
2022/11/30 12:08:09;;;;;;;45.00;19.65;;;7.10;99.90;;;;;;5106994;27;20043;-75
2022/11/30 12:10:46;;;;;;;40.72;17.67;;;7.00;99.90;;;;;;5113773;27;20200;-73
2022/11/30 12:13:25;;;;;;;42.42;18.13;;;7.10;99.90;;;;;;5133662;27;20546;-77
2022/11/30 12:16:13;;;;;;;39.55;18.60;;;7.20;99.90;;;;;;5139447;27;20513;-75
2022/11/30 12:18:49;;;;;;;42.17;17.88;;;7.10;99.90;;;;;;5113531;27;20746;-78
2022/11/30 12:21:24;;;;;;;43.75;17.75;;;7.10;99.90;;;;;;5111359;27;20046;-76
2022/11/30 12:24:16;;;;;;;50.17;20.70;;;7.10;99.90;;;;;;5126433;27;20055;-76
2022/11/30 12:27:07;;;;;;;45.05;18.48;;;7.00;99.90;;;;;;5141257;27;20402;-81
2022/11/30 12:30:02;;;;;;;47.17;18.20;;;7.00;99.90;;;;;;5141295;27;20055;-82
2022/11/30 12:32:51;;;;;;;51.67;19.02;;;7.00;99.90;;;;;;5131586;27;20042;-75
2022/11/30 12:35:26;;;;;;;55.67;19.85;;;7.00;99.90;;;;;;5115997;27;20031;-80
2022/11/30 12:38:10;;;;;;;50.17;20.48;;;7.00;99.90;;;;;;5125475;27;20074;-76
2022/11/30 12:40:51;;;;;;;56.03;20.17;;;7.00;99.90;;;;;;5116758;27;20043;-75
2022/11/30 12:43:41;;;;;;;56.22;21.80;;;6.90;99.90;;;;;;5134774;27;20039;-76
2022/11/30 12:46:25;;;;;;;52.78;19.92;;;6.90;99.90;;;;;;5117260;27;20058;-75
2022/11/30 12:49:12;;;;;;;56.30;20.50;;;7.00;99.90;;;;;;5113731;27;20047;-77
2022/11/30 12:51:46;;;;;;;60.15;21.40;;;7.00;99.90;;;;;;5145134;27;20053;-77
2022/11/30 12:54:26;;;;;;;57.13;20.15;;;7.00;99.90;;;;;;5127983;27;20107;-79
2022/11/30 12:57:34;;;;;;;63.17;23.88;;;7.10;99.90;;;;;;5139701;27;20500;-77